createdAt,value
2019-03-01T00:01:26.334Z,0.70
2019-03-01T00:03:57.973Z,0.70
2019-03-01T00:06:41.691Z,0.60
2019-03-01T00:09:37.799Z,0.60
2019-03-01T00:12:21.233Z,0.50
2019-03-01T00:15:18.455Z,0.40
2019-03-01T00:18:05.205Z,0.40
2019-03-01T00:20:59.274Z,0.40
2019-03-01T00:23:59.783Z,0.40
2019-03-01T00:26:43.323Z,0.40
2019-03-01T00:29:32.724Z,0.30
2019-03-01T00:32:10.362Z,0.30
2019-03-01T00:34:57.057Z,0.20
2019-03-01T00:37:57.482Z,0.20
2019-03-01T00:40:53.438Z,0.20
2019-03-01T00:43:25.126Z,0.20
2019-03-01T00:45:53.523Z,0.20
2019-03-01T00:48:21.969Z,0.20
2019-03-01T00:50:50.411Z,0.20
2019-03-01T00:53:18.810Z,0.20
2019-03-01T00:55:47.248Z,0.10
2019-03-01T00:58:15.641Z,0.20
2019-03-01T01:00:47.043Z,0.10
2019-03-01T01:03:15.518Z,0.10
2019-03-01T01:05:43.893Z,0.10
2019-03-01T01:08:12.705Z,0.00
2019-03-01T01:10:41.120Z,0.00
2019-03-01T01:13:09.523Z,0.00
2019-03-01T01:15:37.972Z,-0.10
2019-03-01T01:18:06.369Z,-0.10
2019-03-01T01:20:34.772Z,-0.10
2019-03-01T01:23:03.241Z,-0.10
2019-03-01T01:25:31.655Z,-0.10
2019-03-01T01:28:00.075Z,-0.20
2019-03-01T01:30:28.473Z,-0.20
2019-03-01T01:32:56.870Z,-0.20
2019-03-01T01:35:28.351Z,-0.20
2019-03-01T01:37:56.734Z,-0.20
2019-03-01T01:40:25.190Z,-0.20
2019-03-01T01:42:53.621Z,-0.20
2019-03-01T01:45:22.032Z,-0.20
2019-03-01T01:47:50.437Z,-0.10
2019-03-01T01:50:18.910Z,-0.10
2019-03-01T01:52:47.354Z,-0.10
2019-03-01T01:55:15.845Z,-0.10
2019-03-01T01:57:44.219Z,0.00
2019-03-01T02:00:13.675Z,0.00
2019-03-01T02:02:42.085Z,0.00
2019-03-01T02:05:10.470Z,0.00
2019-03-01T02:07:38.850Z,0.00
2019-03-01T02:10:09.278Z,0.00
2019-03-01T02:12:37.730Z,0.00
2019-03-01T02:15:09.501Z,0.00
2019-03-01T02:17:37.926Z,0.00
2019-03-01T02:20:09.250Z,-0.10
2019-03-01T02:22:37.763Z,-0.10
2019-03-01T02:25:09.436Z,-0.20
2019-03-01T02:27:37.879Z,-0.20
2019-03-01T02:30:15.073Z,-0.20
2019-03-01T02:32:44.943Z,-0.30
2019-03-01T02:35:17.649Z,-0.30
2019-03-01T02:37:45.342Z,-0.30
2019-03-01T02:40:15.314Z,-0.30
2019-03-01T02:42:43.682Z,-0.40
2019-03-01T02:45:14.923Z,-0.40
2019-03-01T02:47:43.306Z,-0.40
2019-03-01T02:50:14.046Z,-0.40
2019-03-01T02:52:42.520Z,-0.40
2019-03-01T02:55:13.349Z,-0.40
2019-03-01T02:57:41.748Z,-0.50
2019-03-01T03:00:13.655Z,-0.50
2019-03-01T03:02:42.072Z,-0.50
2019-03-01T03:05:10.503Z,-0.50
2019-03-01T03:07:52.060Z,-0.50
2019-03-01T03:10:20.533Z,-0.50
2019-03-01T03:12:51.252Z,-0.60
2019-03-01T03:15:21.376Z,-0.60
2019-03-01T03:17:49.781Z,-0.60
2019-03-01T03:20:18.192Z,-0.60
2019-03-01T03:22:46.640Z,-0.60
2019-03-01T03:25:15.022Z,-0.60
2019-03-01T03:27:43.464Z,-0.60
2019-03-01T03:30:16.275Z,-0.60
2019-03-01T03:32:44.654Z,-0.60
2019-03-01T03:35:13.167Z,-0.60
2019-03-01T03:37:41.719Z,-0.60
2019-03-01T03:40:11.987Z,-0.60
2019-03-01T03:42:40.357Z,-0.60
2019-03-01T03:45:19.584Z,-0.60
2019-03-01T03:47:47.995Z,-0.60
2019-03-01T03:50:16.539Z,-0.60
2019-03-01T03:52:44.995Z,-0.60
2019-03-01T03:55:17.618Z,-0.60
2019-03-01T03:57:46.086Z,-0.50
2019-03-01T04:00:22.679Z,-0.50
2019-03-01T04:02:51.074Z,-0.60
2019-03-01T04:05:19.528Z,-0.60
2019-03-01T04:07:47.985Z,-0.60
2019-03-01T04:10:16.356Z,-0.70
2019-03-01T04:12:44.967Z,-0.80
2019-03-01T04:15:15.772Z,-0.70
2019-03-01T04:17:44.201Z,-0.70
2019-03-01T04:20:17.787Z,-0.70
2019-03-01T04:22:46.211Z,-0.70
2019-03-01T04:25:14.627Z,-0.70
2019-03-01T04:27:43.113Z,-0.70
2019-03-01T04:30:16.656Z,-0.80
2019-03-01T04:32:45.135Z,-0.70
2019-03-01T04:35:14.713Z,-0.70
2019-03-01T04:37:43.148Z,-0.70
2019-03-01T04:40:13.913Z,-0.70
2019-03-01T04:42:42.282Z,-0.80
2019-03-01T04:45:15.606Z,-0.80
2019-03-01T04:47:44.066Z,-0.70
2019-03-01T04:50:12.912Z,-0.80
2019-03-01T04:52:41.686Z,-0.80
2019-03-01T04:55:12.516Z,-0.80
2019-03-01T04:57:40.918Z,-0.80
2019-03-01T05:00:14.705Z,-0.80
2019-03-01T05:02:43.161Z,-0.80
2019-03-01T05:05:11.546Z,-0.80
2019-03-01T05:07:39.987Z,-0.90
2019-03-01T05:10:11.296Z,-0.90
2019-03-01T05:12:39.818Z,-0.90
2019-03-01T05:15:11.440Z,-1.00
2019-03-01T05:17:40.678Z,-1.00
2019-03-01T05:20:10.625Z,-1.00
2019-03-01T05:22:39.062Z,-1.00
2019-03-01T05:25:09.188Z,-1.00
2019-03-01T05:27:37.570Z,-1.00
2019-03-01T05:30:09.066Z,-1.00
2019-03-01T05:32:37.499Z,-1.10
2019-03-01T05:35:07.341Z,-1.00
2019-03-01T05:37:35.809Z,-1.00
2019-03-01T05:40:07.192Z,-1.00
2019-03-01T05:42:35.615Z,-1.00
2019-03-01T05:45:06.464Z,-0.90
2019-03-01T05:47:34.843Z,-0.90
2019-03-01T05:50:04.321Z,-0.80
2019-03-01T05:52:32.769Z,-0.80
2019-03-01T05:55:01.154Z,-0.80
2019-03-01T05:57:29.573Z,-0.80
2019-03-01T05:59:57.999Z,-0.80
2019-03-01T06:02:35.431Z,-0.90
2019-03-01T06:05:06.387Z,-0.90
2019-03-01T06:07:40.749Z,-0.90
2019-03-01T06:10:12.422Z,-0.90
2019-03-01T06:12:59.286Z,-0.90
2019-03-01T06:15:46.039Z,-0.90
2019-03-01T06:18:42.573Z,-1.00
2019-03-01T06:21:16.756Z,-1.00
2019-03-01T06:24:07.724Z,-1.10
2019-03-01T06:26:51.264Z,-1.00
2019-03-01T06:29:40.922Z,-1.10
2019-03-01T06:32:15.216Z,-1.00
2019-03-01T06:34:55.782Z,-0.90
2019-03-01T06:37:36.115Z,-0.90
2019-03-01T06:40:35.067Z,-0.80
2019-03-01T06:43:15.711Z,-0.60
2019-03-01T06:45:50.271Z,-0.60
2019-03-01T06:48:23.120Z,-0.70
2019-03-01T06:50:53.181Z,-0.70
2019-03-01T06:53:21.604Z,-0.70
2019-03-01T06:55:50.113Z,-0.80
2019-03-01T06:58:20.759Z,-0.80
2019-03-01T07:00:53.621Z,-0.70
2019-03-01T07:03:22.064Z,-0.70
2019-03-01T07:05:50.473Z,-0.70
2019-03-01T07:08:18.936Z,-0.70
2019-03-01T07:10:47.479Z,-0.70
2019-03-01T07:13:15.912Z,-0.60
2019-03-01T07:15:44.380Z,-0.60
2019-03-01T07:18:12.787Z,-0.60
2019-03-01T07:20:41.232Z,-0.50
2019-03-01T07:23:09.600Z,-0.50
2019-03-01T07:25:38.053Z,-0.60
2019-03-01T07:28:06.460Z,-0.60
2019-03-01T07:30:35.092Z,-0.60
2019-03-01T07:33:03.514Z,-0.60
2019-03-01T07:35:31.984Z,-0.50
2019-03-01T07:38:00.706Z,-0.40
2019-03-01T07:40:29.143Z,-0.40
2019-03-01T07:42:57.575Z,-0.40
2019-03-01T07:45:25.999Z,-0.40
2019-03-01T07:47:54.694Z,-0.40
2019-03-01T07:50:23.194Z,-0.50
2019-03-01T07:52:51.672Z,-0.40
2019-03-01T07:55:20.093Z,-0.40
2019-03-01T07:57:49.762Z,-0.50
2019-03-01T08:00:18.856Z,-0.50
2019-03-01T08:02:47.294Z,-0.50
2019-03-01T08:05:16.549Z,-0.50
2019-03-01T08:07:55.333Z,-0.40
2019-03-01T08:10:20.880Z,-0.40
2019-03-01T08:12:47.446Z,-0.40
2019-03-01T08:15:17.850Z,-0.40
2019-03-01T08:17:46.310Z,-0.40
2019-03-01T08:20:18.788Z,-0.40
2019-03-01T08:22:49.031Z,-0.30
2019-03-01T08:25:22.831Z,-0.20
2019-03-01T08:27:50.088Z,-0.20
2019-03-01T08:30:18.391Z,0.00
2019-03-01T08:32:46.795Z,0.20
2019-03-01T08:35:16.948Z,0.20
2019-03-01T08:37:45.370Z,0.20
2019-03-01T08:40:17.779Z,0.10
2019-03-01T08:42:46.175Z,0.00
2019-03-01T08:45:16.721Z,-0.20
2019-03-01T08:47:45.221Z,-0.20
2019-03-01T08:50:15.545Z,-0.20
2019-03-01T08:52:44.864Z,-0.10
2019-03-01T08:55:15.685Z,-0.10
2019-03-01T08:57:44.738Z,0.00
2019-03-01T09:00:19.215Z,0.00
2019-03-01T09:02:47.785Z,0.00
2019-03-01T09:05:16.197Z,0.00
2019-03-01T09:07:44.578Z,0.00
2019-03-01T09:10:15.476Z,0.10
2019-03-01T09:12:44.032Z,0.10
2019-03-01T09:15:14.940Z,0.20
2019-03-01T09:17:43.338Z,0.20
2019-03-01T09:20:16.358Z,0.30
2019-03-01T09:22:44.835Z,0.30
2019-03-01T09:25:16.245Z,0.40
2019-03-01T09:27:44.612Z,0.50
2019-03-01T09:30:18.772Z,0.60
2019-03-01T09:32:47.310Z,0.60
2019-03-01T09:35:34.857Z,0.80
2019-03-01T09:38:04.548Z,0.90
2019-03-01T09:40:33.579Z,0.10
2019-03-01T09:43:02.209Z,0.10
2019-03-01T09:45:36.305Z,-0.60
2019-03-01T09:48:04.991Z,-1.00
2019-03-01T09:50:34.624Z,-0.90
2019-03-01T09:53:03.216Z,-0.60
2019-03-01T09:55:34.696Z,-0.30
2019-03-01T09:58:01.732Z,0.00
2019-03-01T10:00:39.905Z,0.30
2019-03-01T10:03:08.334Z,0.50
2019-03-01T10:05:36.926Z,0.70
2019-03-01T10:08:07.603Z,1.00
2019-03-01T10:10:35.828Z,1.50
2019-03-01T10:13:04.393Z,1.80
2019-03-01T10:15:32.895Z,1.40
2019-03-01T10:18:01.535Z,1.20
2019-03-01T10:20:30.292Z,1.00
2019-03-01T10:22:58.795Z,0.90
2019-03-01T10:25:27.354Z,0.90
2019-03-01T10:27:55.764Z,0.90
2019-03-01T10:30:29.162Z,0.80
2019-03-01T10:32:57.654Z,0.90
2019-03-01T10:35:26.196Z,0.70
2019-03-01T10:37:57.342Z,0.80
2019-03-01T10:40:27.621Z,1.00
2019-03-01T10:42:56.163Z,1.20
2019-03-01T10:45:28.708Z,1.40
2019-03-01T10:47:57.294Z,1.70
2019-03-01T10:50:25.935Z,2.00
2019-03-01T10:52:54.346Z,2.50
2019-03-01T10:55:22.915Z,2.50
2019-03-01T10:57:51.387Z,2.40
2019-03-01T11:00:27.056Z,2.10
2019-03-01T11:02:57.011Z,1.40
2019-03-01T11:05:25.771Z,1.20
2019-03-01T11:07:55.149Z,1.20
2019-03-01T11:10:35.395Z,1.10
2019-03-01T11:13:04.477Z,0.90
2019-03-01T11:15:33.247Z,0.70
2019-03-01T11:18:01.646Z,1.80
2019-03-01T11:20:30.073Z,4.00
2019-03-01T11:22:58.520Z,4.80
2019-03-01T11:25:26.992Z,4.10
2019-03-01T11:27:55.567Z,3.50
2019-03-01T11:30:26.792Z,3.00
2019-03-01T11:32:55.580Z,2.80
2019-03-01T11:35:24.083Z,2.90
2019-03-01T11:37:52.583Z,3.10
2019-03-01T11:40:26.938Z,3.10
2019-03-01T11:42:55.370Z,3.10
2019-03-01T11:45:23.858Z,3.30
2019-03-01T11:47:52.360Z,3.40
2019-03-01T11:50:22.751Z,3.70
2019-03-01T11:52:51.167Z,3.90
2019-03-01T11:55:19.545Z,3.30
2019-03-01T11:57:48.235Z,2.90
2019-03-01T12:00:19.037Z,2.80
2019-03-01T12:02:48.328Z,2.20
2019-03-01T12:05:17.474Z,2.20
2019-03-01T12:07:46.030Z,2.20
2019-03-01T12:10:20.150Z,2.90
2019-03-01T12:12:48.735Z,5.20
2019-03-01T12:15:17.165Z,7.00
2019-03-01T12:17:45.620Z,7.10
2019-03-01T12:20:22.944Z,6.30
2019-03-01T12:22:51.460Z,5.10
2019-03-01T12:25:20.028Z,5.70
2019-03-01T12:27:48.536Z,7.20
2019-03-01T12:30:26.956Z,8.60
2019-03-01T12:32:55.458Z,9.60
2019-03-01T12:35:25.667Z,10.40
2019-03-01T12:37:59.703Z,11.30
2019-03-01T12:40:29.855Z,11.10
2019-03-01T12:43:00.141Z,11.60
2019-03-01T12:45:28.928Z,10.90
2019-03-01T12:50:47.572Z,12.10
2019-03-01T12:53:19.665Z,12.60
2019-03-01T12:55:53.035Z,13.00
2019-03-01T12:58:21.572Z,13.10
2019-03-01T13:00:50.092Z,13.50
2019-03-01T13:03:19.222Z,12.30
2019-03-01T13:05:49.986Z,12.80
2019-03-01T13:08:18.781Z,13.40
2019-03-01T13:10:50.038Z,12.20
2019-03-01T13:13:18.595Z,11.60
2019-03-01T13:15:49.640Z,11.10
2019-03-01T13:18:17.305Z,11.10
2019-03-01T13:20:46.103Z,10.20
2019-03-01T13:23:17.733Z,10.20
2019-03-01T13:25:48.142Z,11.20
2019-03-01T13:28:16.572Z,11.40
2019-03-01T13:30:48.193Z,11.60
2019-03-01T13:33:16.673Z,11.70
2019-03-01T13:35:45.306Z,10.40
2019-03-01T13:38:13.703Z,8.30
2019-03-01T13:40:42.275Z,7.10
2019-03-01T13:43:10.681Z,6.10
2019-03-01T13:45:39.103Z,5.10
2019-03-01T13:48:07.526Z,4.70
2019-03-01T13:50:38.324Z,5.50
2019-03-01T13:53:11.131Z,5.90
2019-03-01T13:55:39.502Z,5.60
2019-03-01T13:58:12.396Z,5.40
2019-03-01T14:00:40.856Z,5.60
2019-03-01T14:03:09.619Z,6.00
2019-03-01T14:05:40.318Z,5.20
2019-03-01T14:08:09.453Z,4.80
2019-03-01T14:10:38.506Z,4.30
2019-03-01T14:13:11.139Z,3.90
2019-03-01T14:15:39.844Z,3.50
2019-03-01T14:18:08.322Z,3.10
2019-03-01T14:20:36.788Z,2.90
2019-03-01T14:23:07.050Z,2.50
2019-03-01T14:25:38.577Z,2.50
2019-03-01T14:28:06.301Z,2.40
2019-03-01T14:30:34.850Z,2.20
2019-03-01T14:33:03.554Z,2.50
2019-03-01T14:35:32.160Z,2.50
2019-03-01T14:38:00.582Z,1.60
2019-03-01T14:40:29.266Z,1.70
2019-03-01T14:42:58.151Z,1.70
2019-03-01T14:45:28.940Z,1.60
2019-03-01T14:47:57.672Z,1.50
2019-03-01T14:50:29.872Z,1.40
2019-03-01T14:52:59.080Z,1.30
2019-03-01T14:55:34.165Z,1.20
2019-03-01T14:58:15.110Z,1.20
2019-03-01T15:00:51.164Z,1.10
2019-03-01T15:03:34.886Z,0.90
2019-03-01T15:06:03.766Z,0.70
2019-03-01T15:08:32.146Z,0.60
2019-03-01T15:11:04.465Z,0.60
2019-03-01T15:13:34.780Z,0.40
2019-03-01T15:16:04.643Z,0.40
2019-03-01T15:18:34.059Z,0.40
2019-03-01T15:21:02.929Z,0.40
2019-03-01T15:23:31.754Z,0.30
2019-03-01T15:26:01.299Z,0.20
2019-03-01T15:28:29.738Z,0.30
2019-03-01T15:30:58.226Z,0.30
2019-03-01T15:33:26.640Z,0.00
2019-03-01T15:35:55.197Z,0.00
2019-03-01T15:38:27.474Z,-0.10
2019-03-01T15:40:53.957Z,-0.10
2019-03-01T15:43:22.396Z,0.00
2019-03-01T15:45:50.776Z,0.10
2019-03-01T15:48:19.163Z,0.10
2019-03-01T15:50:47.906Z,0.00
2019-03-01T15:53:16.613Z,-0.10
2019-03-01T15:55:45.707Z,-0.10
2019-03-01T15:58:14.171Z,-0.10
2019-03-01T16:00:48.896Z,-0.10
2019-03-01T16:03:17.335Z,-0.10
2019-03-01T16:05:46.218Z,-0.10
2019-03-01T16:08:14.817Z,-0.10
2019-03-01T16:10:43.203Z,-0.10
2019-03-01T16:13:16.315Z,-0.20
2019-03-01T16:15:44.681Z,-0.20
2019-03-01T16:18:13.117Z,-0.20
2019-03-01T16:20:41.525Z,-0.20
2019-03-01T16:23:10.082Z,-0.20
2019-03-01T16:25:38.645Z,-0.20
2019-03-01T16:28:07.176Z,-0.10
2019-03-01T16:30:35.551Z,-0.10
2019-03-01T16:33:04.050Z,-0.10
2019-03-01T16:35:32.632Z,-0.10
2019-03-01T16:38:02.615Z,-0.20
2019-03-01T16:40:31.340Z,-0.20
2019-03-01T16:42:59.957Z,-0.20
2019-03-01T16:45:28.483Z,-0.30
2019-03-01T16:47:56.906Z,-0.30
2019-03-01T16:50:26.745Z,-0.30
2019-03-01T16:52:55.340Z,-0.30
2019-03-01T16:55:29.256Z,-0.30
2019-03-01T16:58:06.265Z,-0.40
2019-03-01T17:00:27.938Z,-0.60
2019-03-01T17:03:02.400Z,-0.60
2019-03-01T17:05:30.814Z,-0.60
2019-03-01T17:08:03.398Z,-0.50
2019-03-01T17:10:30.198Z,-0.50
2019-03-01T17:12:59.741Z,-0.50
2019-03-01T17:15:28.187Z,-0.50
2019-03-01T17:17:58.661Z,-0.60
2019-03-01T17:20:27.077Z,-0.70
2019-03-01T17:22:55.562Z,-0.70
2019-03-01T17:25:26.981Z,-0.70
2019-03-01T17:27:54.188Z,-0.70
2019-03-01T17:30:24.238Z,-0.60
2019-03-01T17:32:52.755Z,-0.60
2019-03-01T17:35:21.184Z,-0.50
2019-03-01T17:37:49.862Z,-0.50
2019-03-01T17:40:19.101Z,-0.60
2019-03-01T17:42:48.704Z,-0.60
2019-03-01T17:45:20.985Z,-0.60
2019-03-01T17:47:50.488Z,-0.60
2019-03-01T17:50:18.846Z,-0.50
2019-03-01T17:52:47.298Z,-0.50
2019-03-01T17:55:21.546Z,-0.50
2019-03-01T17:57:50.334Z,-0.50
2019-03-01T18:00:43.527Z,-0.50
2019-03-01T18:03:11.939Z,-0.60
2019-03-01T18:05:41.438Z,-0.50
2019-03-01T18:08:10.151Z,-0.50
2019-03-01T18:10:38.587Z,-0.50
2019-03-01T18:13:07.030Z,-0.60
2019-03-01T18:15:35.487Z,-0.60
2019-03-01T18:18:03.852Z,-0.60
2019-03-01T18:20:33.879Z,-0.60
2019-03-01T18:23:03.171Z,-0.60
2019-03-01T18:25:31.947Z,-0.60
2019-03-01T18:28:00.356Z,-0.60
2019-03-01T18:30:30.876Z,-0.60
2019-03-01T18:33:01.418Z,-0.70
2019-03-01T18:35:30.004Z,-0.60
2019-03-01T18:37:58.425Z,-0.60
2019-03-01T18:40:26.835Z,-0.70
2019-03-01T18:42:55.269Z,-0.70
2019-03-01T18:45:28.217Z,-0.70
2019-03-01T18:47:56.711Z,-0.70
2019-03-01T18:50:32.143Z,-0.70
2019-03-01T18:53:03.796Z,-0.70
2019-03-01T18:55:32.484Z,-0.70
2019-03-01T18:58:01.114Z,-0.70
2019-03-01T19:00:35.562Z,-0.60
2019-03-01T19:03:04.413Z,-0.70
2019-03-01T19:05:32.796Z,-0.70
2019-03-01T19:08:04.855Z,-0.70
2019-03-01T19:10:31.294Z,-0.70
2019-03-01T19:12:59.675Z,-0.70
2019-03-01T19:15:28.315Z,-0.70
2019-03-01T19:17:57.055Z,-0.70
2019-03-01T19:20:28.576Z,-0.70
2019-03-01T19:22:57.036Z,-0.70
2019-03-01T19:25:26.545Z,-0.70
2019-03-01T19:27:56.557Z,-0.60
2019-03-01T19:30:25.759Z,-0.60
2019-03-01T19:32:54.164Z,-0.60
2019-03-01T19:35:28.487Z,-0.60
2019-03-01T19:37:53.403Z,-0.70
2019-03-01T19:40:23.188Z,-0.60
2019-03-01T19:42:54.699Z,-0.60
2019-03-01T19:45:23.126Z,-0.60
2019-03-01T19:47:51.731Z,-0.60
2019-03-01T19:50:26.004Z,-0.60
2019-03-01T19:52:54.821Z,-0.70
2019-03-01T19:55:23.282Z,-0.70
2019-03-01T19:57:55.034Z,-0.70
2019-03-01T20:00:25.984Z,-0.70
2019-03-01T20:02:57.314Z,-0.70
2019-03-01T20:05:33.749Z,-0.60
2019-03-01T20:08:02.251Z,-0.50
2019-03-01T20:10:30.775Z,-0.50
2019-03-01T20:12:59.452Z,-0.50
2019-03-01T20:15:31.354Z,-0.50
2019-03-01T20:17:59.832Z,-0.50
2019-03-01T20:20:29.882Z,-0.50
2019-03-01T20:22:59.391Z,-0.50
2019-03-01T20:25:27.824Z,-0.50
2019-03-01T20:27:56.225Z,-0.50
2019-03-01T20:30:30.679Z,-0.60
2019-03-01T20:32:59.262Z,-0.60
2019-03-01T20:35:27.650Z,-0.70
2019-03-01T20:37:56.147Z,-0.70
2019-03-01T20:40:26.740Z,-0.70
2019-03-01T20:42:56.006Z,-0.70
2019-03-01T20:45:34.828Z,-0.70
2019-03-01T20:48:03.569Z,-0.70
2019-03-01T20:50:32.132Z,-0.70
2019-03-01T20:53:00.855Z,-0.70
2019-03-01T20:55:29.224Z,-0.50
2019-03-01T20:57:59.775Z,-0.60
2019-03-01T21:00:29.802Z,-0.60
2019-03-01T21:02:58.417Z,-0.60
2019-03-01T21:05:28.987Z,-0.60
2019-03-01T21:07:57.263Z,-0.60
2019-03-01T21:10:30.086Z,-0.70
2019-03-01T21:12:58.157Z,-0.60
2019-03-01T21:15:26.850Z,-0.60
2019-03-01T21:17:56.928Z,-0.70
2019-03-01T21:20:25.286Z,-0.70
2019-03-01T21:22:53.737Z,-0.70
2019-03-01T21:25:24.364Z,-0.70
2019-03-01T21:27:52.791Z,-0.80
2019-03-01T21:30:34.058Z,-0.80
2019-03-01T21:33:02.434Z,-0.80
2019-03-01T21:35:30.850Z,-0.80
2019-03-01T21:37:59.277Z,-0.80
2019-03-01T21:40:27.782Z,-0.80
2019-03-01T21:42:59.732Z,-0.80
2019-03-01T21:45:26.605Z,-0.80
2019-03-01T21:47:55.004Z,-0.80
2019-03-01T21:50:23.481Z,-0.80
2019-03-01T21:52:52.287Z,-0.80
2019-03-01T21:55:28.636Z,-0.80
2019-03-01T21:57:55.598Z,-0.70
2019-03-01T22:00:29.761Z,-0.70
2019-03-01T22:02:58.422Z,-0.70
2019-03-01T22:05:26.848Z,-0.70
2019-03-01T22:07:55.256Z,-0.80
2019-03-01T22:10:23.861Z,-0.80
2019-03-01T22:12:52.301Z,-0.80
2019-03-01T22:15:27.518Z,-0.80
2019-03-01T22:17:56.218Z,-0.80
2019-03-01T22:20:24.653Z,-0.80
2019-03-01T22:22:53.055Z,-0.90
2019-03-01T22:25:21.481Z,-1.00
2019-03-01T22:27:49.893Z,-1.00
2019-03-01T22:30:26.627Z,-0.90
2019-03-01T22:32:55.114Z,-0.90
2019-03-01T22:35:23.534Z,-1.00
2019-03-01T22:37:51.976Z,-0.90
2019-03-01T22:40:23.788Z,-1.00
2019-03-01T22:42:51.134Z,-1.00
2019-03-01T22:45:19.672Z,-1.00
2019-03-01T22:47:48.126Z,-0.90
2019-03-01T22:50:20.389Z,-0.90
2019-03-01T22:52:48.836Z,-0.90
2019-03-01T22:55:18.502Z,-1.00
2019-03-01T22:57:46.869Z,-1.00
2019-03-01T23:00:48.258Z,-1.00
2019-03-01T23:03:18.807Z,-1.00
2019-03-01T23:05:47.821Z,-1.00
2019-03-01T23:08:16.271Z,-1.00
2019-03-01T23:10:44.654Z,-1.00
2019-03-01T23:13:13.058Z,-1.00
2019-03-01T23:15:43.430Z,-0.90
2019-03-01T23:18:11.554Z,-0.90
2019-03-01T23:20:40.016Z,-0.90
2019-03-01T23:23:08.450Z,-0.90
2019-03-01T23:25:36.860Z,-0.90
2019-03-01T23:28:08.076Z,-0.90
2019-03-01T23:30:35.326Z,-0.90
2019-03-01T23:33:03.710Z,-1.00
2019-03-01T23:35:32.094Z,-0.90
2019-03-01T23:38:00.759Z,-0.90
2019-03-01T23:40:29.185Z,-0.90
2019-03-01T23:42:57.579Z,-0.90
2019-03-01T23:45:26.069Z,-0.90
2019-03-01T23:47:54.435Z,-0.90
2019-03-01T23:50:22.885Z,-0.90
2019-03-01T23:52:51.310Z,-0.90
2019-03-01T23:55:19.983Z,-1.00
2019-03-01T23:57:48.640Z,-0.90
